createdAt,value
2022-09-30T17:25:23.248Z,99690.75
2022-09-30T17:27:51.502Z,99698.84
2022-09-30T17:30:20.301Z,99700.16
2022-09-30T17:32:48.824Z,99670.22
2022-09-30T17:35:17.399Z,99710.81
2022-09-30T17:37:46.596Z,99687.66
2022-09-30T17:40:32.596Z,99715.75
2022-09-30T17:43:14.055Z,99720.94
2022-09-30T17:45:44.238Z,99723.19
2022-09-30T17:48:13.065Z,99731.88
2022-09-30T17:50:44.376Z,99738.69
2022-09-30T17:53:14.195Z,99745.06
2022-09-30T17:55:43.738Z,99748.78
2022-09-30T17:58:13.090Z,99754.13
2022-09-30T18:00:41.601Z,99753.31
2022-09-30T18:03:10.623Z,99759.09
2022-09-30T18:05:38.876Z,99742.03
2022-09-30T18:08:07.093Z,99762.78
2022-09-30T18:10:38.172Z,99759.94
2022-09-30T18:13:06.419Z,99759.72
2022-09-30T18:15:36.160Z,99762.38
2022-09-30T18:18:04.199Z,99768.34
2022-09-30T18:20:32.141Z,99771.81
2022-09-30T18:23:00.115Z,99770.16
2022-09-30T18:25:28.184Z,99732.63
2022-09-30T18:27:59.521Z,99777.19
2022-09-30T18:30:28.068Z,99770.63
2022-09-30T18:32:59.098Z,99780.47
2022-09-30T18:35:27.227Z,99778.03
2022-09-30T18:37:55.306Z,99779.06
2022-09-30T18:40:25.973Z,99772.06
2022-09-30T18:42:55.638Z,99768.16
2022-09-30T18:45:24.308Z,99779.47
2022-09-30T18:47:55.753Z,99781.72
2022-09-30T18:50:26.747Z,99781.91
2022-09-30T18:52:56.387Z,99791.19
2022-09-30T18:55:25.174Z,99801.41
2022-09-30T18:57:55.188Z,99810.84
2022-09-30T19:00:23.289Z,99806.75
2022-09-30T19:02:53.390Z,99807.16
2022-09-30T19:05:21.456Z,99791.81
2022-09-30T19:07:50.942Z,99810.34
2022-09-30T19:10:19.018Z,99811.16
2022-09-30T19:12:47.164Z,99817.94
2022-09-30T19:15:16.398Z,99824.09
2022-09-30T19:17:44.825Z,99826.69
2022-09-30T19:20:14.753Z,99837.16
2022-09-30T19:22:42.741Z,99822.53
2022-09-30T19:25:14.046Z,99825.84
2022-09-30T19:27:43.049Z,99840.44
2022-09-30T19:30:12.769Z,99850.47
2022-09-30T19:32:41.317Z,99836.03
2022-09-30T19:35:11.858Z,99850.34
2022-09-30T19:37:55.924Z,99852.03
2022-09-30T19:43:06.971Z,99840.91
2022-09-30T19:45:35.167Z,99849.31
2022-09-30T19:48:03.145Z,99846.97
2022-09-30T19:50:31.239Z,99852.25
2022-09-30T19:52:59.931Z,99862.38
2022-09-30T19:55:30.423Z,99859.56
2022-09-30T19:58:00.227Z,99863.69
2022-09-30T20:00:28.436Z,99870.50
2022-09-30T20:02:57.595Z,99869.00
2022-09-30T20:05:25.839Z,99860.03
2022-09-30T20:07:53.831Z,99852.47
2022-09-30T20:10:22.563Z,99852.25
2022-09-30T20:12:51.991Z,99855.94
2022-09-30T20:15:37.382Z,99847.78
2022-09-30T20:18:06.031Z,99836.03
2022-09-30T20:20:37.323Z,99839.69
2022-09-30T20:23:05.845Z,99848.78
2022-09-30T20:25:36.635Z,99838.78
2022-09-30T20:28:06.595Z,99840.31
2022-09-30T20:30:35.363Z,99856.84
2022-09-30T20:33:03.353Z,99841.06
2022-09-30T20:35:31.429Z,99854.38
2022-09-30T20:37:59.380Z,99864.38
2022-09-30T20:40:27.510Z,99864.28
2022-09-30T20:43:01.498Z,99865.53
2022-09-30T20:45:31.335Z,99867.75
2022-09-30T20:47:59.401Z,99868.31
2022-09-30T20:50:36.333Z,99876.09
2022-09-30T20:53:06.730Z,99880.16
2022-09-30T20:55:36.623Z,99890.88
2022-09-30T20:58:05.725Z,99891.34
2022-09-30T21:00:37.804Z,99891.75
2022-09-30T21:03:05.928Z,99891.75
2022-09-30T21:05:34.201Z,99899.50
2022-09-30T21:08:03.405Z,99901.78
2022-09-30T21:10:32.056Z,99904.81
2022-09-30T21:13:01.331Z,99905.66
2022-09-30T21:15:31.595Z,99905.28
2022-09-30T21:18:01.183Z,99905.47
2022-09-30T21:20:29.200Z,99905.47
2022-09-30T21:22:57.421Z,99909.44
2022-09-30T21:25:25.526Z,99913.09
2022-09-30T21:27:53.691Z,99911.03
2022-09-30T21:30:22.063Z,99910.19
2022-09-30T21:32:50.430Z,99912.50
2022-09-30T21:35:21.067Z,99909.13
2022-09-30T21:37:50.495Z,99905.72
2022-09-30T21:40:19.082Z,99895.47
2022-09-30T21:42:47.446Z,99896.09
2022-09-30T21:45:16.105Z,99895.28
2022-09-30T21:47:44.261Z,99905.47
2022-09-30T21:50:12.451Z,99908.56
2022-09-30T21:52:43.314Z,99908.84
2022-09-30T21:55:12.646Z,99895.47
2022-09-30T21:57:40.858Z,99894.63
2022-09-30T22:00:09.982Z,99902.84
2022-09-30T22:02:38.017Z,99900.56
2022-09-30T22:05:06.913Z,99907.06
2022-09-30T22:07:35.349Z,99903.69
2022-09-30T22:10:05.601Z,99906.22
2022-09-30T22:12:33.955Z,99894.22
2022-09-30T22:15:02.129Z,99914.38
2022-09-30T22:17:30.138Z,99918.50
2022-09-30T22:19:58.670Z,99910.56
2022-09-30T22:22:27.075Z,99914.31
2022-09-30T22:24:55.117Z,99921.13
2022-09-30T22:27:24.976Z,99919.16
2022-09-30T22:29:52.990Z,99917.41
2022-09-30T22:32:21.286Z,99924.06
2022-09-30T22:35:06.742Z,99926.38
2022-09-30T22:37:52.142Z,99926.38
2022-09-30T22:40:20.194Z,99945.47
2022-09-30T22:42:49.873Z,99946.66
2022-09-30T22:45:18.074Z,99942.00
2022-09-30T22:47:46.039Z,99956.97
2022-09-30T22:50:14.387Z,99964.13
2022-09-30T22:52:42.299Z,99975.03
2022-09-30T22:55:10.982Z,99985.00
2022-09-30T22:57:39.023Z,99998.63
2022-09-30T23:00:09.440Z,100004.06
2022-09-30T23:02:37.475Z,100013.53
2022-09-30T23:05:06.845Z,100011.88
2022-09-30T23:07:34.949Z,99989.41
2022-09-30T23:10:03.280Z,100011.44
2022-09-30T23:12:32.302Z,100011.97
2022-09-30T23:15:00.301Z,100017.38
2022-09-30T23:17:29.767Z,100019.22
2022-09-30T23:19:57.744Z,100011.94
2022-09-30T23:22:25.818Z,100007.63
2022-09-30T23:24:53.889Z,100011.63
2022-09-30T23:27:21.977Z,100010.63
2022-09-30T23:29:50.053Z,100012.28
2022-09-30T23:32:18.619Z,100010.84
2022-09-30T23:34:48.127Z,100007.34
2022-09-30T23:37:16.298Z,100017.63
2022-09-30T23:39:44.359Z,99995.47
2022-09-30T23:42:12.434Z,100017.19
2022-09-30T23:44:40.454Z,99995.50
2022-09-30T23:47:21.568Z,100019.66
2022-09-30T23:49:50.974Z,100000.47
2022-09-30T23:52:18.977Z,100004.44
2022-09-30T23:54:47.055Z,99962.91
2022-09-30T23:57:15.303Z,99990.22
2022-09-30T23:59:43.418Z,99992.69
